createdAt,value
2023-03-16T00:02:18.834Z,4.53
2023-03-16T00:04:47.411Z,5.13
2023-03-16T00:07:14.743Z,5.37
2023-03-16T00:09:41.973Z,5.20
2023-03-16T00:12:15.598Z,4.83
2023-03-16T00:14:43.973Z,4.77
2023-03-16T00:17:18.829Z,6.30
2023-03-16T00:19:55.871Z,5.83
2023-03-16T00:22:27.433Z,5.17
2023-03-16T00:24:54.922Z,4.73
2023-03-16T00:27:22.969Z,4.30
2023-03-16T00:29:55.807Z,5.20
2023-03-16T00:32:28.619Z,6.60
2023-03-16T00:34:55.166Z,5.43
2023-03-16T00:37:23.858Z,8.80
2023-03-16T00:39:51.402Z,5.13
2023-03-16T00:42:20.188Z,5.30
2023-03-16T00:44:46.933Z,6.10
2023-03-16T00:47:14.312Z,5.83
2023-03-16T00:49:43.605Z,4.67
2023-03-16T00:52:15.954Z,5.90
2023-03-16T00:54:44.611Z,6.17
2023-03-16T00:57:12.696Z,5.00
2023-03-16T00:59:39.921Z,5.97
2023-03-16T01:02:07.890Z,4.70
2023-03-16T01:04:35.895Z,6.37
2023-03-16T01:07:04.810Z,4.73
2023-03-16T01:09:36.810Z,4.93
2023-03-16T01:12:08.428Z,6.23
2023-03-16T01:14:36.203Z,4.90
2023-03-16T01:17:04.940Z,5.67
2023-03-16T01:19:35.642Z,5.37
2023-03-16T01:22:04.616Z,6.60
2023-03-16T01:24:32.422Z,5.40
2023-03-16T01:26:59.645Z,6.10
2023-03-16T01:29:26.230Z,5.80
2023-03-16T01:31:55.778Z,4.53
2023-03-16T01:34:23.030Z,4.63
2023-03-16T01:36:51.000Z,7.30
2023-03-16T01:39:25.666Z,6.23
2023-03-16T01:41:52.093Z,7.30
2023-03-16T01:44:22.432Z,8.40
2023-03-16T01:46:48.990Z,6.10
2023-03-16T01:49:25.114Z,6.73
2023-03-16T01:52:03.781Z,5.33
2023-03-16T01:55:09.282Z,6.40
2023-03-16T01:57:42.554Z,5.37
2023-03-16T02:00:24.330Z,8.63
2023-03-16T02:03:14.079Z,6.67
2023-03-16T02:06:06.533Z,6.17
2023-03-16T02:08:36.883Z,6.40
2023-03-16T02:11:04.664Z,6.30
2023-03-16T02:13:45.776Z,6.73
2023-03-16T02:16:19.230Z,9.47
2023-03-16T02:18:51.234Z,6.60
2023-03-16T02:21:46.644Z,4.43
2023-03-16T02:24:13.580Z,7.57
2023-03-16T02:26:47.499Z,8.13
2023-03-16T02:29:29.913Z,12.67
2023-03-16T02:31:58.188Z,7.07
2023-03-16T02:34:26.270Z,7.10
2023-03-16T02:36:53.801Z,5.93
2023-03-16T02:39:24.143Z,5.63
2023-03-16T02:41:50.967Z,5.73
2023-03-16T02:44:27.580Z,6.00
2023-03-16T02:47:03.614Z,5.37
2023-03-16T02:49:38.565Z,6.10
2023-03-16T02:52:06.560Z,6.53
2023-03-16T02:54:33.127Z,6.63
2023-03-16T02:56:59.709Z,8.13
2023-03-16T02:59:27.876Z,7.37
2023-03-16T03:01:54.388Z,8.37
2023-03-16T03:04:23.345Z,5.90
2023-03-16T03:06:51.350Z,7.80
2023-03-16T03:09:18.867Z,8.07
2023-03-16T03:11:46.998Z,7.80
2023-03-16T03:14:16.662Z,7.77
2023-03-16T03:16:46.769Z,6.40
2023-03-16T03:19:15.130Z,6.47
2023-03-16T03:21:41.906Z,7.67
2023-03-16T03:24:09.694Z,6.47
2023-03-16T03:26:38.130Z,7.43
2023-03-16T03:29:07.138Z,7.93
2023-03-16T03:31:35.044Z,7.20
2023-03-16T03:34:06.403Z,5.53
2023-03-16T03:36:35.548Z,6.90
2023-03-16T03:39:05.943Z,6.73
2023-03-16T03:41:34.383Z,6.47
2023-03-16T03:44:04.282Z,7.20
2023-03-16T03:46:31.326Z,4.60
2023-03-16T03:49:03.528Z,6.27
2023-03-16T03:51:32.766Z,5.93
2023-03-16T03:54:03.346Z,6.37
2023-03-16T03:56:40.738Z,6.53
2023-03-16T03:59:11.536Z,5.40
2023-03-16T04:01:58.397Z,5.43
2023-03-16T04:04:30.894Z,6.63
2023-03-16T04:06:57.359Z,6.67
2023-03-16T04:09:23.936Z,6.97
2023-03-16T04:11:50.876Z,6.83
2023-03-16T04:14:17.342Z,6.80
2023-03-16T04:16:47.068Z,6.63
2023-03-16T04:19:14.343Z,5.87
2023-03-16T04:21:41.132Z,7.60
2023-03-16T04:24:07.716Z,6.83
2023-03-16T04:26:36.001Z,7.70
2023-03-16T04:29:03.937Z,7.83
2023-03-16T04:31:32.232Z,7.07
2023-03-16T04:33:59.126Z,7.00
2023-03-16T04:36:25.625Z,8.87
2023-03-16T04:38:53.122Z,8.27
2023-03-16T04:41:20.142Z,6.27
2023-03-16T04:43:57.627Z,6.57
2023-03-16T04:46:27.305Z,8.50
2023-03-16T04:48:58.177Z,6.37
2023-03-16T04:51:26.784Z,7.70
2023-03-16T04:54:08.916Z,8.67
2023-03-16T04:56:41.413Z,8.47
2023-03-16T04:59:15.285Z,10.70
2023-03-16T05:01:48.434Z,8.70
2023-03-16T05:04:19.534Z,12.97
2023-03-16T05:06:47.221Z,13.17
2023-03-16T05:09:14.535Z,10.53
2023-03-16T05:11:40.977Z,12.03
2023-03-16T05:14:11.124Z,10.37
2023-03-16T05:16:52.232Z,12.20
2023-03-16T05:19:19.092Z,9.27
2023-03-16T05:21:46.078Z,11.67
2023-03-16T05:24:12.589Z,10.73
2023-03-16T05:26:39.472Z,9.80
2023-03-16T05:29:09.903Z,9.67
2023-03-16T05:31:37.985Z,11.23
2023-03-16T05:34:10.361Z,12.83
2023-03-16T05:36:36.925Z,12.70
2023-03-16T05:39:11.854Z,10.57
2023-03-16T05:41:42.463Z,10.20
2023-03-16T05:44:17.834Z,11.13
2023-03-16T05:47:04.042Z,10.53
2023-03-16T05:49:32.792Z,11.00
2023-03-16T05:52:02.950Z,10.10
2023-03-16T05:54:31.403Z,10.10
2023-03-16T05:56:57.927Z,10.73
2023-03-16T05:59:24.722Z,9.37
2023-03-16T06:01:54.645Z,9.67
2023-03-16T06:04:21.857Z,9.97
2023-03-16T06:06:48.787Z,9.00
2023-03-16T06:09:26.374Z,9.87
2023-03-16T06:11:53.316Z,10.70
2023-03-16T06:14:20.256Z,10.33
2023-03-16T06:16:47.194Z,10.47
2023-03-16T06:19:15.084Z,10.80
2023-03-16T06:21:42.326Z,9.93
2023-03-16T06:24:10.458Z,10.50
2023-03-16T06:26:38.193Z,10.93
2023-03-16T06:29:07.384Z,9.37
2023-03-16T06:31:36.469Z,9.43
2023-03-16T06:34:05.943Z,9.47
2023-03-16T06:36:32.545Z,9.00
2023-03-16T06:39:01.321Z,10.03
2023-03-16T06:41:32.707Z,9.00
2023-03-16T06:43:59.234Z,9.00
2023-03-16T06:46:27.742Z,13.03
2023-03-16T06:48:55.415Z,9.63
2023-03-16T06:51:21.897Z,10.17
2023-03-16T06:53:49.989Z,9.70
2023-03-16T06:56:17.054Z,9.87
2023-03-16T06:58:45.429Z,11.27
2023-03-16T07:01:12.497Z,8.97
2023-03-16T07:03:39.320Z,8.03
2023-03-16T07:06:14.852Z,9.07
2023-03-16T07:08:42.917Z,8.33
2023-03-16T07:11:10.622Z,9.40
2023-03-16T07:13:37.324Z,7.33
2023-03-16T07:16:05.035Z,8.43
2023-03-16T07:18:32.267Z,8.23
2023-03-16T07:20:59.339Z,7.43
2023-03-16T07:23:26.976Z,8.70
2023-03-16T07:26:00.684Z,6.37
2023-03-16T07:28:28.567Z,7.80
2023-03-16T07:31:03.933Z,6.07
2023-03-16T07:33:37.205Z,6.87
2023-03-16T07:36:06.634Z,6.73
2023-03-16T07:38:38.993Z,8.07
2023-03-16T07:41:05.516Z,7.53
2023-03-16T07:43:34.445Z,6.93
2023-03-16T07:46:01.994Z,7.40
2023-03-16T07:48:29.307Z,7.80
2023-03-16T07:51:00.438Z,8.07
2023-03-16T07:53:28.694Z,7.50
2023-03-16T07:56:12.495Z,6.47
2023-03-16T07:58:41.857Z,5.80
2023-03-16T08:01:10.820Z,8.13
2023-03-16T08:03:38.177Z,5.47
2023-03-16T08:06:06.038Z,6.23
2023-03-16T08:08:32.898Z,5.50
2023-03-16T08:10:59.483Z,7.13
2023-03-16T08:13:36.970Z,5.03
2023-03-16T08:16:05.380Z,6.40
2023-03-16T08:18:38.239Z,5.27
2023-03-16T08:21:06.636Z,5.73
2023-03-16T08:23:33.818Z,4.70
2023-03-16T08:26:01.139Z,5.60
2023-03-16T08:28:28.007Z,4.83
2023-03-16T08:30:58.332Z,6.13
2023-03-16T08:33:42.927Z,4.60
2023-03-16T08:36:13.285Z,6.47
2023-03-16T08:38:44.129Z,6.57
2023-03-16T08:41:12.475Z,5.83
2023-03-16T08:43:40.212Z,7.53
2023-03-16T08:46:07.273Z,4.73
2023-03-16T08:48:44.987Z,4.80
2023-03-16T08:51:11.968Z,4.60
2023-03-16T08:53:38.440Z,5.03
2023-03-16T08:56:08.199Z,6.53
2023-03-16T08:58:35.934Z,5.20
2023-03-16T09:01:05.666Z,6.23
2023-03-16T09:03:33.385Z,5.77
2023-03-16T09:06:06.693Z,5.30
2023-03-16T09:08:34.021Z,4.87
2023-03-16T09:11:08.609Z,6.17
2023-03-16T09:13:36.213Z,4.53
2023-03-16T09:16:02.998Z,4.80
2023-03-16T09:18:30.165Z,5.50
2023-03-16T09:21:01.319Z,4.97
2023-03-16T09:23:29.280Z,6.70
2023-03-16T09:26:01.012Z,3.87
2023-03-16T09:28:28.897Z,4.50
2023-03-16T09:30:56.992Z,4.90
2023-03-16T09:33:25.377Z,3.37
2023-03-16T09:35:52.696Z,4.50
2023-03-16T09:38:19.584Z,4.23
2023-03-16T09:40:48.849Z,3.70
2023-03-16T09:43:39.869Z,4.83
2023-03-16T09:46:30.022Z,3.43
2023-03-16T09:48:58.016Z,3.93
2023-03-16T09:51:43.346Z,4.10
2023-03-16T09:54:22.728Z,2.87
2023-03-16T09:56:50.291Z,4.90
2023-03-16T09:59:18.397Z,2.10
2023-03-16T10:02:05.978Z,4.17
2023-03-16T10:04:47.070Z,4.53
2023-03-16T10:07:34.385Z,2.37
2023-03-16T10:10:11.206Z,2.07
2023-03-16T10:12:43.398Z,2.07
2023-03-16T10:15:21.035Z,2.70
2023-03-16T10:17:56.458Z,2.47
2023-03-16T10:20:24.636Z,2.83
2023-03-16T10:22:52.621Z,2.10
2023-03-16T10:25:32.690Z,1.73
2023-03-16T10:27:59.422Z,3.50
2023-03-16T10:30:33.038Z,2.80
2023-03-16T10:33:18.444Z,5.27
2023-03-16T10:35:58.197Z,3.87
2023-03-16T10:38:39.997Z,2.23
2023-03-16T10:41:31.774Z,1.80
2023-03-16T10:44:16.622Z,1.90
2023-03-16T10:46:58.970Z,1.47
2023-03-16T10:49:36.034Z,1.57
2023-03-16T10:52:13.505Z,1.57
2023-03-16T10:54:46.394Z,2.40
2023-03-16T10:57:24.880Z,3.47
2023-03-16T10:59:53.877Z,1.43
2023-03-16T11:02:26.929Z,0.90
2023-03-16T11:04:54.360Z,1.53
2023-03-16T11:07:24.950Z,1.40
2023-03-16T11:09:53.006Z,2.83
2023-03-16T11:12:30.121Z,1.93
2023-03-16T11:15:20.073Z,2.37
2023-03-16T11:17:53.520Z,1.27
2023-03-16T11:20:29.038Z,1.80
2023-03-16T11:22:56.104Z,2.10
2023-03-16T11:25:37.097Z,2.43
2023-03-16T11:28:12.011Z,0.60
2023-03-16T11:30:49.763Z,2.00
2023-03-16T11:33:16.421Z,3.03
2023-03-16T11:35:58.380Z,1.40
2023-03-16T11:38:42.003Z,1.77
2023-03-16T11:41:18.293Z,1.17
2023-03-16T11:43:50.527Z,1.60
2023-03-16T11:46:31.948Z,0.90
2023-03-16T11:49:32.701Z,0.90
2023-03-16T11:52:11.336Z,1.00
2023-03-16T11:55:07.449Z,1.30
2023-03-16T11:57:51.846Z,2.07
2023-03-16T12:00:47.769Z,2.40
2023-03-16T12:03:32.321Z,1.13
2023-03-16T12:06:22.187Z,0.83
2023-03-16T12:09:27.232Z,0.63
2023-03-16T12:12:00.121Z,1.20
2023-03-16T12:14:33.796Z,2.27
2023-03-16T12:17:09.543Z,1.43
2023-03-16T12:19:53.556Z,0.40
2023-03-16T12:22:24.452Z,0.60
2023-03-16T12:24:50.866Z,1.30
2023-03-16T12:27:24.784Z,1.17
2023-03-16T12:30:41.124Z,1.53
2023-03-16T12:33:19.408Z,0.70
2023-03-16T12:35:54.794Z,2.60
2023-03-16T12:38:36.718Z,2.93
2023-03-16T12:41:24.687Z,1.50
2023-03-16T12:44:04.124Z,1.23
2023-03-16T12:46:47.781Z,2.97
2023-03-16T12:49:15.149Z,1.50
2023-03-16T12:51:43.688Z,1.03
2023-03-16T12:54:25.287Z,1.07
2023-03-16T12:56:59.554Z,2.67
2023-03-16T12:59:40.137Z,2.10
2023-03-16T13:02:13.532Z,0.50
2023-03-16T13:04:42.762Z,0.60
2023-03-16T13:07:22.618Z,1.87
2023-03-16T13:09:57.164Z,1.97
2023-03-16T13:12:32.786Z,0.50
2023-03-16T13:14:59.932Z,1.73
2023-03-16T13:17:30.051Z,1.53
2023-03-16T13:20:01.532Z,1.47
2023-03-16T13:22:43.147Z,1.47
2023-03-16T13:25:22.433Z,0.43
2023-03-16T13:27:54.470Z,1.60
2023-03-16T13:30:28.746Z,1.00
2023-03-16T13:33:00.060Z,0.50
2023-03-16T13:35:29.318Z,1.20
2023-03-16T13:38:05.594Z,2.77
2023-03-16T13:40:32.828Z,2.90
2023-03-16T13:42:59.459Z,1.67
2023-03-16T13:45:34.212Z,1.63
2023-03-16T13:48:01.893Z,1.37
2023-03-16T13:50:32.989Z,1.87
2023-03-16T13:53:04.191Z,0.60
2023-03-16T13:55:36.988Z,2.10
2023-03-16T13:58:04.551Z,1.17
2023-03-16T14:00:34.919Z,1.87
2023-03-16T14:03:13.344Z,0.97
2023-03-16T14:05:40.794Z,1.47
2023-03-16T14:08:23.282Z,2.63
2023-03-16T14:10:51.486Z,1.60
2023-03-16T14:13:32.305Z,3.50
2023-03-16T14:16:06.456Z,2.60
2023-03-16T14:18:46.020Z,2.20
2023-03-16T14:21:19.755Z,1.93
2023-03-16T14:23:51.176Z,3.43
2023-03-16T14:26:19.674Z,3.07
2023-03-16T14:29:06.398Z,2.80
2023-03-16T14:31:38.644Z,2.73
2023-03-16T14:34:23.045Z,5.27
2023-03-16T14:36:49.488Z,5.23
2023-03-16T14:39:20.783Z,2.93
2023-03-16T14:41:53.478Z,3.37
2023-03-16T14:44:24.341Z,5.10
2023-03-16T14:46:54.112Z,4.23
2023-03-16T14:49:33.332Z,3.33
2023-03-16T14:52:15.357Z,3.00
2023-03-16T14:54:41.816Z,2.13
2023-03-16T14:57:16.692Z,5.13
2023-03-16T14:59:43.598Z,2.50
2023-03-16T15:02:17.082Z,2.80
2023-03-16T15:04:44.485Z,8.53
2023-03-16T15:07:25.202Z,2.47
2023-03-16T15:09:53.865Z,1.90
2023-03-16T15:12:21.690Z,1.83
2023-03-16T15:15:06.889Z,3.73
2023-03-16T15:17:33.613Z,4.03
2023-03-16T15:20:00.129Z,2.33
2023-03-16T15:22:34.013Z,2.67
2023-03-16T15:25:17.990Z,7.80
2023-03-16T15:27:44.466Z,3.70
2023-03-16T15:30:31.673Z,4.10
2023-03-16T15:32:58.317Z,3.43
2023-03-16T15:35:24.917Z,3.13
2023-03-16T15:37:51.418Z,4.40
2023-03-16T15:40:24.526Z,2.60
2023-03-16T15:42:51.539Z,2.43
2023-03-16T15:45:21.332Z,2.87
2023-03-16T15:47:49.722Z,3.93
2023-03-16T15:50:19.448Z,4.30
2023-03-16T15:52:49.532Z,1.70
2023-03-16T15:55:20.003Z,2.63
2023-03-16T15:57:48.863Z,3.47
2023-03-16T16:00:42.148Z,4.03
2023-03-16T16:03:11.674Z,3.30
2023-03-16T16:05:38.125Z,3.20
2023-03-16T16:08:04.862Z,4.43
2023-03-16T16:10:32.254Z,3.70
2023-03-16T16:12:59.066Z,2.67
2023-03-16T16:15:31.866Z,2.80
2023-03-16T16:18:19.734Z,3.20
2023-03-16T16:20:45.013Z,2.63
2023-03-16T16:23:11.462Z,3.07
2023-03-16T16:25:41.458Z,3.23
2023-03-16T16:28:17.535Z,2.20
2023-03-16T16:30:44.382Z,3.77
2023-03-16T16:33:31.291Z,3.37
2023-03-16T16:36:00.570Z,3.07
2023-03-16T16:38:27.257Z,5.33
2023-03-16T16:40:58.000Z,2.70
2023-03-16T16:43:46.535Z,2.80
2023-03-16T16:46:16.540Z,2.93
2023-03-16T16:48:46.482Z,2.50
2023-03-16T16:51:24.656Z,3.60
2023-03-16T16:53:52.892Z,2.50
2023-03-16T16:56:27.463Z,2.63
2023-03-16T16:58:55.892Z,3.33
2023-03-16T17:01:34.611Z,2.63
2023-03-16T17:04:02.832Z,2.47
2023-03-16T17:06:29.696Z,2.70
2023-03-16T17:08:56.149Z,3.70
2023-03-16T17:11:29.079Z,2.10
2023-03-16T17:13:58.130Z,2.30
2023-03-16T17:16:28.597Z,3.60
2023-03-16T17:18:55.444Z,2.73
2023-03-16T17:21:25.145Z,2.77
2023-03-16T17:23:55.086Z,3.03
2023-03-16T17:26:23.345Z,1.80
2023-03-16T17:28:54.786Z,2.93
2023-03-16T17:31:24.344Z,2.27
2023-03-16T17:33:52.459Z,3.03
2023-03-16T17:36:20.473Z,3.70
2023-03-16T17:38:47.532Z,2.47
2023-03-16T17:41:22.793Z,3.17
2023-03-16T17:43:51.211Z,2.40
2023-03-16T17:46:20.263Z,3.73
2023-03-16T17:48:47.975Z,4.93
2023-03-16T17:51:16.484Z,10.83
2023-03-16T17:53:43.881Z,5.90
2023-03-16T17:56:21.089Z,2.10
2023-03-16T17:58:51.229Z,2.87
2023-03-16T18:01:21.962Z,4.53
2023-03-16T18:03:48.497Z,3.80
2023-03-16T18:06:26.125Z,3.70
2023-03-16T18:08:53.024Z,4.07
2023-03-16T18:11:22.065Z,4.27
2023-03-16T18:13:50.722Z,2.87
2023-03-16T18:16:27.966Z,4.03
2023-03-16T18:18:59.045Z,2.60
2023-03-16T18:21:25.974Z,2.63
2023-03-16T18:23:53.688Z,4.63
2023-03-16T18:26:20.710Z,2.40
2023-03-16T18:28:48.209Z,2.13
2023-03-16T18:31:27.467Z,7.73
2023-03-16T18:34:00.586Z,3.70
2023-03-16T18:36:31.365Z,5.70
2023-03-16T18:39:00.885Z,11.77
2023-03-16T18:41:29.484Z,10.77
2023-03-16T18:43:58.688Z,4.73
2023-03-16T18:46:28.877Z,4.80
2023-03-16T18:48:58.101Z,4.03
2023-03-16T18:51:25.503Z,3.07
2023-03-16T18:53:53.348Z,3.17
2023-03-16T18:56:25.715Z,3.00
2023-03-16T18:58:53.103Z,5.00
2023-03-16T19:01:30.016Z,4.23
2023-03-16T19:03:58.858Z,3.47
2023-03-16T19:06:30.906Z,3.43
2023-03-16T19:09:19.075Z,2.60
2023-03-16T19:11:46.940Z,4.30
2023-03-16T19:14:23.892Z,3.57
2023-03-16T19:16:51.604Z,3.87
2023-03-16T19:19:22.602Z,3.60
2023-03-16T19:21:51.666Z,4.63
2023-03-16T19:24:24.131Z,3.60
2023-03-16T19:26:51.165Z,3.07
2023-03-16T19:29:22.256Z,3.77
2023-03-16T19:31:48.807Z,4.90
2023-03-16T19:34:17.791Z,5.77
2023-03-16T19:36:44.905Z,4.37
2023-03-16T19:39:13.486Z,6.20
2023-03-16T19:41:40.508Z,3.23
2023-03-16T19:44:19.574Z,5.13
2023-03-16T19:46:46.720Z,3.43
2023-03-16T19:49:21.732Z,5.63
2023-03-16T19:51:51.405Z,5.23
2023-03-16T19:54:31.414Z,4.33
2023-03-16T19:57:02.378Z,6.80
2023-03-16T19:59:32.611Z,6.00
2023-03-16T20:02:00.077Z,4.70
2023-03-16T20:04:27.622Z,4.93
2023-03-16T20:06:54.273Z,3.07
2023-03-16T20:09:22.128Z,4.70
2023-03-16T20:11:49.545Z,4.70
2023-03-16T20:14:25.536Z,4.20
2023-03-16T20:16:53.179Z,4.30
2023-03-16T20:19:22.203Z,6.87
2023-03-16T20:21:49.099Z,5.83
2023-03-16T20:24:17.369Z,6.00
2023-03-16T20:26:46.636Z,5.53
2023-03-16T20:29:28.933Z,6.97
2023-03-16T20:31:56.151Z,4.77
2023-03-16T20:34:28.439Z,4.03
2023-03-16T20:36:55.788Z,4.43
2023-03-16T20:39:22.618Z,5.30
2023-03-16T20:41:49.523Z,5.67
2023-03-16T20:44:19.467Z,5.70
2023-03-16T20:46:46.932Z,5.00
2023-03-16T20:49:22.464Z,5.23
2023-03-16T20:51:50.156Z,5.83
2023-03-16T20:54:17.663Z,6.13
2023-03-16T20:56:44.462Z,4.70
2023-03-16T20:59:18.751Z,7.13
2023-03-16T21:01:45.951Z,8.10
2023-03-16T21:04:27.505Z,9.47
2023-03-16T21:06:55.035Z,11.33
2023-03-16T21:09:22.124Z,7.73
2023-03-16T21:11:48.694Z,7.40
2023-03-16T21:14:18.120Z,5.57
2023-03-16T21:16:44.675Z,6.00
2023-03-16T21:19:16.155Z,5.30
2023-03-16T21:21:43.368Z,5.13
2023-03-16T21:24:09.832Z,5.27
2023-03-16T21:26:37.215Z,5.97
2023-03-16T21:29:08.148Z,5.97
2023-03-16T21:31:34.869Z,5.80
2023-03-16T21:34:01.835Z,7.77
2023-03-16T21:36:28.520Z,5.90
2023-03-16T21:38:57.022Z,5.37
2023-03-16T21:41:23.484Z,4.63
2023-03-16T21:43:50.153Z,5.83
2023-03-16T21:46:22.896Z,6.80
2023-03-16T21:48:55.107Z,6.03
2023-03-16T21:51:26.348Z,5.90
2023-03-16T21:53:53.448Z,6.37
2023-03-16T21:56:23.079Z,8.10
2023-03-16T21:58:50.418Z,7.93
2023-03-16T22:01:29.161Z,10.43
2023-03-16T22:03:58.243Z,15.20
2023-03-16T22:06:28.003Z,10.40
2023-03-16T22:08:55.263Z,11.70
2023-03-16T22:11:27.715Z,11.27
2023-03-16T22:13:55.485Z,11.87
2023-03-16T22:16:24.429Z,9.57
2023-03-16T22:18:56.223Z,9.73
2023-03-16T22:21:32.236Z,10.57
2023-03-16T22:23:59.868Z,9.10
2023-03-16T22:26:26.689Z,7.37
2023-03-16T22:28:55.996Z,7.27
2023-03-16T22:31:30.739Z,8.40
2023-03-16T22:33:57.442Z,9.27
2023-03-16T22:36:24.762Z,6.03
2023-03-16T22:39:01.260Z,6.33
2023-03-16T22:41:29.347Z,8.77
2023-03-16T22:43:56.316Z,7.07
2023-03-16T22:46:25.763Z,6.00
2023-03-16T22:48:53.898Z,6.30
2023-03-16T22:51:20.237Z,5.53
2023-03-16T22:53:47.009Z,4.40
2023-03-16T22:56:13.662Z,4.43
2023-03-16T22:58:46.846Z,3.57
2023-03-16T23:01:19.202Z,6.57
2023-03-16T23:03:47.558Z,7.57
2023-03-16T23:06:20.360Z,4.90
2023-03-16T23:08:47.647Z,4.67
2023-03-16T23:11:19.406Z,4.57
2023-03-16T23:13:46.418Z,7.47
2023-03-16T23:16:36.504Z,4.63
2023-03-16T23:19:09.840Z,5.57
2023-03-16T23:21:42.081Z,5.30
2023-03-16T23:24:08.689Z,7.70
2023-03-16T23:26:35.153Z,7.03
2023-03-16T23:29:01.549Z,10.07
2023-03-16T23:31:29.142Z,7.37
2023-03-16T23:33:55.714Z,6.50
2023-03-16T23:36:24.607Z,8.00
2023-03-16T23:38:51.351Z,12.93
2023-03-16T23:41:21.743Z,11.50
2023-03-16T23:43:50.673Z,11.93
2023-03-16T23:46:19.876Z,12.73
2023-03-16T23:48:49.015Z,12.37
2023-03-16T23:51:23.326Z,13.70
2023-03-16T23:53:49.814Z,10.17
2023-03-16T23:56:16.827Z,8.37
2023-03-16T23:58:43.670Z,7.17
